Time;durP1;ratioP1;P1;durP2;ratioP2;P2;SDS_P1;SDS_P2;PMS_P1;PMS_P2;Temp;Humidity;BMP_temperature;BMP_pressure;BME280_temperature;BME280_humidity;BME280_pressure;Samples;Min_cycle;Max_cycle;Signal;HPM_P1;HPM_P2
2023/02/24 00:02:24;;;;;;;40.10;24.50;;;;;;;3.66;77.74;99665.92;109009;1256;94503;-62
2023/02/24 00:04:59;;;;;;;40.80;26.30;;;;;;;3.69;77.69;99663.27;108919;1256;80329;-62
2023/02/24 00:07:32;;;;;;;;;;;;;;;3.69;77.64;99656.86;109027;1257;82859;-62
2023/02/24 00:10:08;;;;;;;42.50;25.40;;;;;;;3.66;77.67;99656.77;109001;1256;98945;-58
2023/02/24 00:12:44;;;;;;;39.80;25.30;;;;;;;3.65;77.88;99652.40;109041;1256;89223;-62
2023/02/24 00:15:19;;;;;;;37.50;25.80;;;;;;;3.65;77.81;99646.60;108999;1256;94821;-63
2023/02/24 00:17:53;;;;;;;40.40;26.10;;;;;;;3.66;77.82;99643.63;108957;1256;79647;-61
2023/02/24 00:20:32;;;;;;;40.70;26.90;;;;;;;3.67;77.85;99641.92;109006;1256;83517;-62
2023/02/24 00:23:08;;;;;;;40.00;24.90;;;;;;;3.66;77.91;99631.17;108989;1256;97315;-60
2023/02/24 00:25:42;;;;;;;38.60;25.60;;;;;;;3.70;77.99;99630.71;109017;1256;89089;-59
2023/02/24 00:28:17;;;;;;;42.70;26.40;;;;;;;3.75;77.97;99628.55;109015;1256;93976;-62
2023/02/24 00:30:51;;;;;;;42.00;25.80;;;;;;;3.80;77.86;99627.66;109008;1256;79965;-62
2023/02/24 00:33:25;;;;;;;39.20;25.40;;;;;;;3.89;77.82;99623.48;109013;1256;80627;-61
2023/02/24 00:36:07;;;;;;;38.00;25.70;;;;;;;3.94;77.75;99617.55;109009;1257;98032;-60
2023/02/24 00:38:44;;;;;;;39.60;25.30;;;;;;;3.99;77.80;99613.84;109043;1256;88283;-58
2023/02/24 00:41:21;;;;;;;44.30;26.70;;;;;;;4.00;77.89;99601.26;108992;1256;95414;-59
2023/02/24 00:43:56;;;;;;;42.90;26.60;;;;;;;3.99;77.84;99599.39;108985;1256;81476;-58
2023/02/24 00:46:31;;;;;;;42.70;26.80;;;;;;;3.99;77.79;99596.68;108988;1256;82223;-57
2023/02/24 00:49:09;;;;;;;44.90;26.70;;;;;;;3.99;77.97;99591.17;108992;1256;98269;-58
2023/02/24 00:51:45;;;;;;;45.00;26.40;;;;;;;4.04;77.94;99591.40;109022;1256;86855;-58
2023/02/24 00:54:20;;;;;;;39.70;25.60;;;;;;;4.06;78.08;99587.73;109029;1256;95750;-63
2023/02/24 00:56:55;;;;;;;39.70;25.30;;;;;;;4.09;77.90;99583.32;109008;1256;79657;-62
2023/02/24 00:59:30;;;;;;;42.70;26.80;;;;;;;4.14;78.00;99579.37;109044;1256;82684;-59
2023/02/24 01:02:05;;;;;;;41.20;26.30;;;;;;;4.15;77.96;99576.06;109017;1256;99231;-62
2023/02/24 01:04:39;;;;;;;39.90;25.20;;;;;;;4.15;77.96;99573.19;109028;1256;89122;-63
2023/02/24 01:07:14;;;;;;;43.30;25.90;;;;;;;4.15;78.03;99576.69;108977;1256;93971;-63
2023/02/24 01:09:53;;;;;;;45.10;27.20;;;;;;;4.15;77.93;99570.35;108999;1256;81481;-60
2023/02/24 01:15:16;;;;;;;39.20;25.00;;;;;;;4.13;78.04;99564.67;109012;1256;98146;-61
2023/02/24 01:17:51;;;;;;;38.80;25.60;;;;;;;4.09;78.16;99556.55;109041;1256;87412;-61
2023/02/24 01:20:29;;;;;;;45.60;26.90;;;;;;;4.11;78.24;99555.85;108981;1256;92924;-62
2023/02/24 01:23:03;;;;;;;45.30;26.60;;;;;;;4.13;78.35;99551.57;109016;1256;77813;-60
2023/02/24 01:25:36;;;;;;;;;;;;;;;4.18;78.38;99542.81;109042;1256;82095;-59
2023/02/24 01:28:10;;;;;;;40.30;25.20;;;;;;;4.19;78.30;99534.46;109013;1256;99032;-60
2023/02/24 01:30:44;;;;;;;40.30;24.40;;;;;;;4.15;78.19;99534.90;108985;1256;88583;-60
2023/02/24 01:33:18;;;;;;;42.50;25.80;;;;;;;4.10;78.40;99529.42;109037;1256;94199;-59
2023/02/24 01:35:54;;;;;;;41.00;25.60;;;;;;;4.10;78.26;99527.55;108971;1256;80315;-59
2023/02/24 01:38:28;;;;;;;40.10;25.40;;;;;;;4.08;78.43;99521.58;109017;1256;83469;-60
2023/02/24 01:41:03;;;;;;;43.50;25.60;;;;;;;4.08;78.33;99514.60;108987;1256;99599;-59
2023/02/24 01:43:58;;;;;;;39.40;25.50;;;;;;;4.10;78.48;99512.49;109019;1256;88411;-59
2023/02/24 01:46:34;;;;;;;39.60;24.90;;;;;;;4.08;78.53;99511.80;108992;1256;94909;-59
2023/02/24 01:49:13;;;;;;;41.80;25.40;;;;;;;4.09;78.71;99508.48;108955;1259;78851;-58
2023/02/24 01:51:52;;;;;;;40.50;26.10;;;;;;;4.13;78.64;99504.61;108939;1257;82362;-58
2023/02/24 01:54:34;;;;;;;35.80;23.70;;;;;;;4.12;78.66;99501.70;108990;1256;98705;-60
2023/02/24 01:57:09;;;;;;;36.90;24.80;;;;;;;4.09;78.65;99495.42;109017;1256;86889;-60
2023/02/24 01:59:44;;;;;;;40.30;24.40;;;;;;;4.06;78.72;99490.86;109007;1256;93573;-59
2023/02/24 02:02:19;;;;;;;37.30;24.50;;;;;;;4.05;78.67;99490.52;108995;1256;81827;-59
2023/02/24 02:04:57;;;;;;;41.90;25.30;;;;;;;4.06;78.72;99489.42;109006;1256;80573;-59
2023/02/24 02:07:32;;;;;;;43.00;26.20;;;;;;;4.09;78.84;99486.34;109029;1256;98739;-60
2023/02/24 02:10:09;;;;;;;40.40;26.10;;;;;;;4.09;78.94;99478.31;109075;1256;87710;-60
2023/02/24 02:12:45;;;;;;;40.40;26.70;;;;;;;4.13;78.97;99479.75;109035;1255;95345;-60
2023/02/24 02:15:20;;;;;;;35.30;23.20;;;;;;;4.12;78.89;99472.95;108947;1256;78166;-61
2023/02/24 02:17:59;;;;;;;;;;;;;;;4.06;79.12;99474.77;109023;1256;83694;-61
2023/02/24 02:21:17;;;;;;;38.00;24.60;;;;;;;4.06;79.26;99469.11;109035;1256;99439;-61
2023/02/24 02:24:26;;;;;;;39.90;25.80;;;;;;;4.07;79.15;99454.88;108828;1256;87265;-58
2023/02/24 02:27:45;;;;;;;40.50;24.90;;;;;;;4.10;79.18;99461.31;108968;1256;94427;-58
2023/02/24 02:31:05;;;;;;;45.20;26.10;;;;;;;4.14;79.39;99460.87;108986;1256;80259;-60
2023/02/24 02:34:27;;;;;;;41.80;27.00;;;;;;;4.22;79.37;99459.82;109030;1256;81745;-61
2023/02/24 02:37:13;;;;;;;40.70;26.10;;;;;;;4.29;79.56;99451.88;108877;1256;99364;-61
2023/02/24 02:39:58;;;;;;;46.70;28.00;;;;;;;4.35;79.58;99450.48;109055;1256;88961;-61
2023/02/24 02:42:41;;;;;;;41.10;25.30;;;;;;;4.37;79.73;99451.02;108995;1256;92612;-60
2023/02/24 02:45:23;;;;;;;41.00;26.70;;;;;;;4.41;79.79;99450.32;109011;1256;79665;-58
2023/02/24 02:48:01;;;;;;;45.90;28.10;;;;;;;4.45;80.01;99451.44;108925;1256;80929;-60
2023/02/24 02:50:44;;;;;;;43.30;28.40;;;;;;;4.53;80.20;99446.48;109032;1256;99511;-60
2023/02/24 02:53:26;;;;;;;46.00;28.00;;;;;;;4.57;80.22;99439.52;109033;1256;87858;-59
2023/02/24 02:56:10;;;;;;;42.30;27.10;;;;;;;4.63;80.25;99441.16;109019;1256;94631;-59
2023/02/24 02:58:52;;;;;;;40.80;28.20;;;;;;;4.66;80.55;99436.80;109001;1256;81898;-60
2023/02/24 03:01:35;;;;;;;41.30;26.60;;;;;;;4.70;80.60;99437.55;109046;1256;81893;-60
2023/02/24 03:04:15;;;;;;;46.70;28.60;;;;;;;4.72;80.95;99435.73;109007;1256;99686;-61
2023/02/24 03:06:53;;;;;;;48.10;29.50;;;;;;;4.77;81.02;99429.21;109004;1256;88405;-61
2023/02/24 03:09:31;;;;;;;45.00;29.00;;;;;;;4.83;81.12;99414.64;109039;1256;95157;-61
2023/02/24 03:12:10;;;;;;;45.90;28.20;;;;;;;4.89;81.32;99407.54;109018;1256;79062;-61
2023/02/24 03:14:49;;;;;;;48.40;30.20;;;;;;;4.91;81.58;99416.76;109018;1256;82983;-59
2023/02/24 03:17:28;;;;;;;48.20;29.70;;;;;;;4.97;81.51;99416.45;109039;1256;98071;-59
2023/02/24 03:20:15;;;;;;;52.50;31.30;;;;;;;4.97;81.79;99415.52;109026;1256;89604;-60
2023/02/24 03:22:59;;;;;;;46.90;30.40;;;;;;;4.99;82.01;99416.87;109033;1256;94950;-60
2023/02/24 03:25:43;;;;;;;50.40;32.40;;;;;;;5.02;82.07;99410.66;109041;1260;78222;-60
2023/02/24 03:28:36;;;;;;;51.80;31.30;;;;;;;5.02;82.28;99408.45;108930;1256;81598;-59
2023/02/24 03:31:17;;;;;;;49.70;31.90;;;;;;;5.08;82.46;99406.57;109016;1256;99195;-59
2023/02/24 03:34:02;;;;;;;52.10;31.00;;;;;;;5.10;82.68;99408.43;109037;1258;88743;-62
2023/02/24 03:36:36;;;;;;;53.10;32.20;;;;;;;5.15;82.78;99399.98;109043;1256;94863;-62
2023/02/24 03:39:12;;;;;;;49.80;31.60;;;;;;;5.19;82.88;99396.09;109003;1256;81331;-59
2023/02/24 03:41:57;;;;;;;48.00;32.60;;;;;;;5.24;82.96;99393.16;109089;1256;83199;-59
2023/02/24 03:44:32;;;;;;;52.80;32.30;;;;;;;5.26;83.07;99397.19;109113;1255;99573;-59
2023/02/24 03:47:11;;;;;;;50.30;33.20;;;;;;;5.31;83.37;99391.59;109114;1256;88874;-59
2023/02/24 03:49:45;;;;;;;45.80;31.00;;;;;;;5.35;83.36;99391.13;109109;1255;94022;-60
2023/02/24 03:52:34;;;;;;;49.70;32.60;;;;;;;5.40;83.19;99385.55;109079;1256;81726;-60
2023/02/24 03:55:33;;;;;;;51.20;32.30;;;;;;;5.48;83.43;99384.68;109119;1255;82378;-62
2023/02/24 03:58:18;;;;;;;52.00;34.40;;;;;;;5.52;83.53;99377.92;109116;1256;100516;-61
2023/02/24 04:01:04;;;;;;;54.70;35.30;;;;;;;5.54;83.77;99374.85;109062;1256;88604;-61
2023/02/24 04:03:49;;;;;;;50.90;34.10;;;;;;;5.54;84.22;99369.26;109159;1255;95194;-60
2023/02/24 04:06:27;;;;;;;;;;;;;;;5.57;84.19;99364.48;109098;1259;81705;-61
2023/02/24 04:09:12;;;;;;;50.80;33.10;;;;;;;5.56;84.29;99357.65;109121;1256;80069;-60
2023/02/24 04:11:53;;;;;;;54.20;35.90;;;;;;;5.59;84.72;99351.94;109145;1256;99077;-61
2023/02/24 04:14:45;;;;;;;55.70;35.30;;;;;;;5.66;84.90;99349.63;109137;1256;87938;-61
2023/02/24 04:17:27;;;;;;;49.70;34.10;;;;;;;5.65;84.71;99342.46;109092;1256;93385;-61
2023/02/24 04:20:11;;;;;;;54.30;33.70;;;;;;;5.66;84.86;99334.31;109081;1256;82113;-62
2023/02/24 04:22:50;;;;;;;57.60;35.40;;;;;;;5.66;85.06;99332.48;108972;1255;82762;-61
2023/02/24 04:25:27;;;;;;;58.10;36.60;;;;;;;5.67;85.22;99331.85;109149;1256;99769;-60
2023/02/24 04:28:03;;;;;;;56.30;36.80;;;;;;;5.71;85.15;99329.04;109079;1256;88793;-61
2023/02/24 04:30:47;;;;;;;54.20;34.80;;;;;;;5.73;85.47;99330.73;109067;1256;94371;-61
2023/02/24 04:33:21;;;;;;;51.90;34.50;;;;;;;5.73;85.36;99330.34;109107;1256;78753;-61
2023/02/24 04:35:55;;;;;;;57.00;36.40;;;;;;;5.75;85.43;99324.35;109039;1256;83061;-61
2023/02/24 04:38:29;;;;;;;57.50;36.30;;;;;;;5.82;85.42;99321.06;109022;1256;97855;-60
2023/02/24 04:41:03;;;;;;;56.90;36.10;;;;;;;5.87;85.43;99322.23;108920;1257;87611;-60
2023/02/24 04:43:37;;;;;;;52.10;34.90;;;;;;;5.90;85.48;99317.00;108926;1257;94553;-58
2023/02/24 04:46:12;;;;;;;55.60;36.60;;;;;;;5.92;85.49;99313.99;108926;1257;79414;-58
2023/02/24 04:48:50;;;;;;;59.30;36.90;;;;;;;5.96;85.46;99311.34;108953;1257;82398;-59
2023/02/24 04:51:24;;;;;;;54.30;36.30;;;;;;;5.96;85.39;99313.48;108975;1256;99201;-58
2023/02/24 04:53:58;;;;;;;55.20;37.30;;;;;;;5.99;85.56;99309.07;108849;1256;86988;-59
2023/02/24 04:56:32;;;;;;;54.90;36.00;;;;;;;6.02;85.72;99305.98;109054;1256;92523;-59
2023/02/24 04:59:09;;;;;;;59.00;37.90;;;;;;;6.02;85.59;99300.57;109053;1256;81361;-61
2023/02/24 05:01:50;;;;;;;58.30;36.10;;;;;;;6.02;85.70;99300.18;109032;1256;81115;-62
2023/02/24 05:04:25;;;;;;;54.20;35.90;;;;;;;6.02;85.80;99297.39;109027;1256;99703;-59
2023/02/24 05:06:59;;;;;;;57.70;39.10;;;;;;;6.05;85.98;99295.92;109044;1256;87669;-59
2023/02/24 05:09:34;;;;;;;57.50;37.50;;;;;;;6.08;86.16;99294.40;109038;1256;93799;-59
2023/02/24 05:12:09;;;;;;;55.10;36.20;;;;;;;6.11;86.11;99290.30;108903;1256;80851;-58
2023/02/24 05:14:44;;;;;;;56.70;37.50;;;;;;;6.12;86.15;99291.27;108951;1259;84895;-60
2023/02/24 05:17:18;;;;;;;58.60;39.10;;;;;;;6.12;86.33;99290.19;109019;1256;99848;-60
2023/02/24 05:22:50;;;;;;;59.90;38.00;;;;;;;6.14;86.41;99285.14;109034;1256;96128;-58
2023/02/24 05:25:25;;;;;;;60.50;37.10;;;;;;;6.16;86.73;99282.20;109002;1256;81171;-58
2023/02/24 05:28:02;;;;;;;56.30;37.30;;;;;;;6.17;86.39;99283.16;109026;1257;82533;-62
2023/02/24 05:30:36;;;;;;;58.10;36.80;;;;;;;6.16;86.43;99278.61;108904;1257;99216;-62
2023/02/24 05:33:13;;;;;;;52.60;35.50;;;;;;;6.15;86.61;99280.71;108941;1258;86914;-58
2023/02/24 05:35:49;;;;;;;58.40;38.40;;;;;;;6.17;86.70;99280.94;108931;1258;95314;-60
2023/02/24 05:38:24;;;;;;;59.70;38.70;;;;;;;6.19;86.97;99278.98;108918;1258;79896;-61
2023/02/24 05:41:07;;;;;;;57.60;38.20;;;;;;;6.23;86.96;99278.69;108944;1257;81129;-62
2023/02/24 05:43:42;;;;;;;54.50;36.70;;;;;;;6.23;86.83;99280.86;108920;1258;96199;-60
2023/02/24 05:46:18;;;;;;;53.90;36.80;;;;;;;6.19;86.79;99278.64;108942;1257;89147;-60
2023/02/24 05:48:56;;;;;;;60.20;37.70;;;;;;;6.19;86.99;99278.98;108924;1257;95026;-63
2023/02/24 05:51:34;;;;;;;56.50;38.00;;;;;;;6.24;87.16;99278.29;108877;1257;82063;-62
2023/02/24 05:54:11;;;;;;;59.20;37.90;;;;;;;6.26;87.02;99280.58;108920;1259;81881;-58
2023/02/24 05:56:46;;;;;;;61.00;37.50;;;;;;;6.26;87.23;99276.99;108917;1257;98611;-58
2023/02/24 05:59:21;;;;;;;57.30;36.60;;;;;;;6.28;87.15;99280.73;108933;1257;89364;-59
2023/02/24 06:02:25;;;;;;;58.00;37.90;;;;;;;6.28;87.21;99276.36;108878;1261;93876;-60
2023/02/24 06:05:03;;;;;;;60.90;39.50;;;;;;;6.30;87.41;99274.60;108894;1258;82060;-60
2023/02/24 06:07:37;;;;;;;54.70;37.00;;;;;;;6.34;87.29;99273.20;108932;1257;83382;-62
2023/02/24 06:10:16;;;;;;;;;;;;;;;6.35;87.23;99270.29;108914;1258;97680;-62
2023/02/24 06:12:52;;;;;;;59.10;36.70;;;;;;;6.32;87.35;99268.33;108944;1257;88009;-61
2023/02/24 06:15:26;;;;;;;62.10;39.30;;;;;;;6.39;87.40;99265.04;108825;1257;93571;-61
2023/02/24 06:18:02;;;;;;;57.70;38.50;;;;;;;6.44;87.54;99270.94;108904;1258;80961;-62
2023/02/24 06:20:40;;;;;;;57.80;38.50;;;;;;;6.45;87.59;99268.17;108920;1257;81830;-61
2023/02/24 06:23:18;;;;;;;56.60;37.40;;;;;;;6.45;87.49;99267.88;108919;1258;99160;-59
2023/02/24 06:25:56;;;;;;;61.80;37.60;;;;;;;6.45;87.53;99265.54;108914;1260;89073;-60
2023/02/24 06:28:32;;;;;;;56.10;36.60;;;;;;;6.49;87.52;99264.48;108920;1257;95150;-63
2023/02/24 06:31:13;;;;;;;57.60;37.70;;;;;;;6.50;87.59;99258.67;108917;1257;81031;-64
2023/02/24 06:33:48;;;;;;;58.20;38.60;;;;;;;6.51;87.75;99257.41;108937;1257;82386;-64
2023/02/24 06:36:35;;;;;;;56.50;37.60;;;;;;;6.56;87.91;99250.03;108921;1258;100101;-60
2023/02/24 06:39:13;;;;;;;55.60;37.80;;;;;;;6.53;87.72;99248.44;108907;1257;88308;-60
2023/02/24 06:41:49;;;;;;;54.90;35.70;;;;;;;6.54;87.75;99250.73;108928;1257;94918;-59
2023/02/24 06:44:23;;;;;;;57.00;37.80;;;;;;;6.53;87.72;99248.09;108876;1257;81385;-58
2023/02/24 06:46:58;;;;;;;53.30;37.30;;;;;;;6.53;87.80;99243.23;108940;1259;81455;-59
2023/02/24 06:49:32;;;;;;;52.10;34.60;;;;;;;6.59;87.94;99242.83;108930;1257;99909;-60
2023/02/24 06:52:07;;;;;;;58.90;37.30;;;;;;;6.64;87.79;99240.20;108912;1257;87117;-59
2023/02/24 06:54:41;;;;;;;54.20;35.20;;;;;;;6.69;87.78;99237.31;108920;1258;95334;-60
2023/02/24 06:57:22;;;;;;;54.00;36.50;;;;;;;6.72;88.10;99241.38;108909;1257;82245;-60
2023/02/24 06:59:56;;;;;;;55.80;37.10;;;;;;;6.78;87.96;99241.32;108946;1258;81048;-63
2023/02/24 07:02:38;;;;;;;56.60;37.40;;;;;;;6.81;88.03;99238.10;108950;1258;98394;-62
2023/02/24 07:05:13;;;;;;;53.00;35.50;;;;;;;6.78;87.83;99238.63;108926;1257;88540;-63
2023/02/24 07:07:47;;;;;;;54.00;36.90;;;;;;;6.78;87.95;99239.58;108898;1257;94247;-62
2023/02/24 07:10:22;;;;;;;57.80;38.20;;;;;;;6.79;88.10;99235.67;108883;1258;81705;-61
2023/02/24 07:12:57;;;;;;;57.30;36.70;;;;;;;6.83;87.94;99234.05;108942;1257;82975;-61
2023/02/24 07:15:31;;;;;;;54.10;37.10;;;;;;;6.87;87.97;99228.59;108914;1259;98704;-62
2023/02/24 07:18:13;;;;;;;56.30;36.00;;;;;;;6.94;88.14;99227.45;108928;1257;88966;-58
2023/02/24 07:20:54;;;;;;;54.00;34.70;;;;;;;6.98;88.15;99223.46;108941;1257;95229;-58
2023/02/24 07:23:29;;;;;;;57.30;36.30;;;;;;;7.01;88.10;99221.17;108904;1258;82401;-61
2023/02/24 07:26:10;;;;;;;54.70;37.10;;;;;;;7.05;88.10;99220.96;108925;1257;81803;-61
2023/02/24 07:28:47;;;;;;;56.70;35.00;;;;;;;7.03;88.23;99218.52;108932;1257;99707;-59
2023/02/24 07:31:25;;;;;;;50.50;35.60;;;;;;;7.09;88.20;99212.73;108903;1257;88598;-59
2023/02/24 07:34:01;;;;;;;54.20;36.00;;;;;;;7.11;88.31;99215.40;108927;1257;93969;-62
2023/02/24 07:36:47;;;;;;;50.40;34.00;;;;;;;7.15;88.32;99214.92;108900;1257;81208;-62
2023/02/24 07:39:28;;;;;;;48.70;33.90;;;;;;;7.19;88.40;99214.34;108953;1257;81159;-61
2023/02/24 07:42:03;;;;;;;52.10;35.20;;;;;;;7.25;88.32;99211.77;108905;1257;99538;-61
2023/02/24 07:44:38;;;;;;;47.40;32.00;;;;;;;7.29;88.34;99208.20;108937;1257;87534;-62
2023/02/24 07:47:12;;;;;;;53.30;34.40;;;;;;;7.32;88.34;99209.12;108903;1259;94613;-61
2023/02/24 07:49:46;;;;;;;49.80;33.10;;;;;;;7.36;88.35;99204.48;108911;1257;82629;-57
2023/02/24 07:52:22;;;;;;;50.30;33.30;;;;;;;7.37;88.25;99203.58;108893;1257;81993;-61
2023/02/24 07:55:07;;;;;;;47.40;32.20;;;;;;;7.41;88.09;99200.05;108897;1259;99472;-58
2023/02/24 07:57:45;;;;;;;47.60;31.30;;;;;;;7.40;88.27;99194.79;108935;1257;89943;-59
2023/02/24 08:00:26;;;;;;;47.10;32.30;;;;;;;7.40;88.38;99196.15;108925;1257;94569;-59
2023/02/24 08:03:01;;;;;;;46.10;30.70;;;;;;;7.46;88.41;99192.75;108890;1259;80801;-60
2023/02/24 08:05:35;;;;;;;;;;;;;;;7.44;88.35;99192.50;108914;1257;82305;-60
2023/02/24 08:08:09;;;;;;;45.60;31.20;;;;;;;7.48;88.48;99189.95;108912;1257;99692;-62
2023/02/24 08:10:46;;;;;;;46.00;30.30;;;;;;;7.52;88.38;99186.95;108916;1259;86526;-63
2023/02/24 08:13:21;;;;;;;48.90;31.50;;;;;;;7.54;88.48;99182.73;108891;1257;94234;-63
2023/02/24 08:15:57;;;;;;;44.80;29.60;;;;;;;7.59;88.65;99180.41;108911;1257;81457;-63
2023/02/24 08:18:36;;;;;;;44.00;29.20;;;;;;;7.65;88.43;99177.30;108923;1261;83240;-62
2023/02/24 08:21:13;;;;;;;44.10;30.20;;;;;;;7.73;88.38;99175.89;108926;1257;99574;-62
2023/02/24 08:23:48;;;;;;;41.80;29.30;;;;;;;7.74;88.34;99175.48;108932;1259;88877;-61
2023/02/24 08:26:26;;;;;;;45.50;30.00;;;;;;;7.76;88.37;99171.77;108984;1260;94707;-61
2023/02/24 08:29:06;;;;;;;44.70;29.30;;;;;;;7.81;88.35;99172.03;109018;1256;80891;-62
2023/02/24 08:31:41;;;;;;;42.90;29.50;;;;;;;7.85;88.35;99165.39;109056;1256;83241;-62
2023/02/24 08:34:16;;;;;;;42.50;29.50;;;;;;;7.86;88.36;99167.59;109041;1256;99816;-59
2023/02/24 08:36:57;;;;;;;44.00;30.20;;;;;;;7.85;88.20;99165.30;109041;1256;87634;-59
2023/02/24 08:39:35;;;;;;;43.00;30.00;;;;;;;7.84;88.17;99162.15;109008;1256;95115;-58
2023/02/24 08:42:13;;;;;;;46.90;30.00;;;;;;;7.82;88.20;99158.75;109009;1258;80823;-58
2023/02/24 08:44:49;;;;;;;41.30;29.00;;;;;;;7.81;88.20;99163.76;109033;1256;83430;-62
2023/02/24 08:47:29;;;;;;;48.60;31.60;;;;;;;7.81;88.26;99156.39;109023;1256;99111;-62
2023/02/24 08:50:05;;;;;;;47.10;30.90;;;;;;;7.83;88.24;99154.95;109048;1256;89256;-62
2023/02/24 08:52:40;;;;;;;48.30;30.90;;;;;;;7.79;88.42;99153.07;109005;1256;93815;-58
2023/02/24 08:55:21;;;;;;;46.40;31.60;;;;;;;7.81;88.37;99147.63;109034;1256;81481;-58
2023/02/24 08:58:00;;;;;;;44.20;30.80;;;;;;;7.88;88.35;99146.08;109054;1256;82914;-59
2023/02/24 09:00:47;;;;;;;41.90;28.90;;;;;;;7.93;88.19;99141.26;109038;1256;99904;-59
2023/02/24 09:03:32;;;;;;;44.50;30.10;;;;;;;7.96;88.25;99134.02;109058;1256;86731;-63
2023/02/24 09:06:08;;;;;;;42.90;28.80;;;;;;;7.93;88.27;99131.36;109033;1256;93757;-63
2023/02/24 09:08:49;;;;;;;42.30;28.50;;;;;;;7.94;88.24;99127.64;109041;1256;81212;-58
2023/02/24 09:11:23;;;;;;;44.30;29.60;;;;;;;7.95;88.26;99124.79;109043;1256;80767;-58
2023/02/24 09:14:00;;;;;;;46.90;30.70;;;;;;;7.95;88.29;99119.78;109031;1256;98795;-60
2023/02/24 09:16:34;;;;;;;47.10;30.90;;;;;;;7.99;88.23;99118.73;109042;1256;87765;-60
2023/02/24 09:22:28;;;;;;;44.00;29.30;;;;;;;8.00;88.28;99118.93;108989;1256;81362;-60
2023/02/24 09:25:22;;;;;;;43.90;28.30;;;;;;;7.98;88.29;99116.73;109033;1256;83609;-58
2023/02/24 09:28:08;;;;;;;41.00;29.10;;;;;;;7.98;88.33;99113.09;109096;1256;99640;-58
2023/02/24 09:30:52;;;;;;;40.70;28.90;;;;;;;7.99;88.28;99111.23;109090;1256;88465;-58
2023/02/24 09:33:35;;;;;;;41.10;29.40;;;;;;;8.00;88.28;99108.17;108999;1257;95133;-62
2023/02/24 09:36:18;;;;;;;40.80;29.00;;;;;;;7.97;88.42;99105.67;109047;1256;82273;-62
2023/02/24 09:39:13;;;;;;;39.40;27.10;;;;;;;8.01;88.46;99101.51;109048;1256;82076;-58
2023/02/24 09:42:27;;;;;;;41.90;26.70;;;;;;;8.07;88.48;99100.02;109134;1257;97894;-58
2023/02/24 09:45:10;;;;;;;37.30;26.80;;;;;;;8.12;88.38;99093.83;109034;1256;87945;-62
2023/02/24 09:47:56;;;;;;;36.80;25.50;;;;;;;8.13;88.38;99094.70;109008;1256;95593;-62
2023/02/24 09:50:44;;;;;;;35.40;24.90;;;;;;;8.14;88.54;99092.80;109005;1260;80036;-62
2023/02/24 09:53:37;;;;;;;38.00;24.90;;;;;;;8.19;88.48;99091.35;109025;1256;82557;-62
2023/02/24 09:56:26;;;;;;;32.30;23.70;;;;;;;8.24;88.42;99091.12;108983;1257;100149;-62
2023/02/24 09:59:12;;;;;;;36.80;24.00;;;;;;;8.23;88.49;99092.23;109040;1256;87493;-59
2023/02/24 10:02:01;;;;;;;31.30;23.70;;;;;;;8.26;88.41;99091.29;109013;1255;94567;-59
2023/02/24 10:05:07;;;;;;;28.70;20.70;;;;;;;8.26;88.43;99086.86;109082;1256;78475;-61
2023/02/24 10:07:44;;;;;;;30.40;21.30;;;;;;;8.28;88.34;99081.98;109082;1258;82575;-61
2023/02/24 10:10:26;;;;;;;28.60;20.60;;;;;;;8.27;88.27;99085.13;109074;1257;98438;-61
2023/02/24 10:13:13;;;;;;;27.80;20.90;;;;;;;8.26;88.14;99086.85;109050;1256;86513;-58
2023/02/24 10:15:57;;;;;;;26.10;19.10;;;;;;;8.25;87.93;99084.15;108990;1257;93924;-59
2023/02/24 10:18:41;;;;;;;25.80;19.10;;;;;;;8.19;88.17;99080.34;109034;1257;79467;-63
2023/02/24 10:21:47;;;;;;;24.30;17.00;;;;;;;8.20;88.11;99075.35;109009;1257;82580;-63
2023/02/24 10:24:29;;;;;;;22.60;16.20;;;;;;;8.18;88.14;99072.92;108885;1263;99236;-62
2023/02/24 10:27:12;;;;;;;20.40;14.30;;;;;;;8.18;88.19;99068.54;108922;1259;87833;-59
2023/02/24 10:30:09;;;;;;;19.70;13.40;;;;;;;8.18;88.39;99067.84;108889;1259;93325;-60
2023/02/24 10:32:53;;;;;;;17.50;12.90;;;;;;;8.28;88.20;99063.85;108822;1259;81831;-62
2023/02/24 10:35:32;;;;;;;17.90;12.40;;;;;;;8.34;88.17;99060.50;108893;1261;80877;-62
2023/02/24 10:38:06;;;;;;;18.50;13.40;;;;;;;8.37;88.07;99051.89;108975;1257;99416;-62
2023/02/24 10:40:56;;;;;;;19.50;14.40;;;;;;;8.42;88.13;99044.94;109070;1257;88915;-59
2023/02/24 10:43:31;;;;;;;17.60;13.30;;;;;;;8.48;88.08;99043.11;109025;1257;95424;-62
2023/02/24 10:46:15;;;;;;;20.90;13.50;;;;;;;8.56;87.97;99042.28;108868;1262;82402;-62
2023/02/24 10:49:00;;;;;;;18.50;12.20;;;;;;;8.52;87.79;99039.27;108954;1262;81838;-58
2023/02/24 10:51:42;;;;;;;22.90;12.80;;;;;;;8.47;87.72;99036.61;109031;1257;99350;-58
2023/02/24 10:54:43;;;;;;;17.50;12.30;;;;;;;8.43;87.72;99035.91;109012;1256;87869;-58
2023/02/24 10:57:35;;;;;;;15.50;11.20;;;;;;;8.37;87.77;99033.56;108974;1257;95211;-58
2023/02/24 11:00:31;;;;;;;16.20;11.70;;;;;;;8.37;87.68;99025.53;109017;1257;80779;-60
2023/02/24 11:03:24;;;;;;;16.30;11.00;;;;;;;8.37;87.61;99019.23;109059;1257;82082;-60
2023/02/24 11:06:18;;;;;;;14.70;10.60;;;;;;;8.36;87.56;99022.34;109024;1256;98999;-60
2023/02/24 11:09:18;;;;;;;16.80;11.30;;;;;;;8.35;87.54;99016.23;109024;1257;88038;-58
2023/02/24 11:17:57;;;;;;;15.30;10.40;;;;;;;8.46;87.24;98994.67;108956;1257;81484;-59
2023/02/24 11:20:37;;;;;;;17.60;10.60;;;;;;;8.48;87.28;98995.20;108901;1257;98765;-60
2023/02/24 11:23:18;;;;;;;19.10;12.10;;;;;;;8.53;87.32;98990.67;108960;1257;89416;-59
2023/02/24 11:25:59;;;;;;;16.90;10.80;;;;;;;8.50;87.13;98987.30;108904;1257;95621;-59
2023/02/24 11:28:59;;;;;;;18.50;12.40;;;;;;;8.43;87.04;98981.77;108902;1257;81959;-59
2023/02/24 11:31:51;;;;;;;20.10;13.30;;;;;;;8.37;87.06;98979.41;109028;1256;82266;-59
2023/02/24 11:34:34;;;;;;;21.90;13.50;;;;;;;8.36;87.04;98971.47;109012;1257;98637;-63
2023/02/24 11:37:27;;;;;;;21.80;13.80;;;;;;;8.38;86.88;98969.14;109082;1256;87665;-63
2023/02/24 11:40:07;;;;;;;18.70;13.90;;;;;;;8.42;86.81;98963.52;109004;1257;95333;-59
2023/02/24 11:42:47;;;;;;;22.30;14.30;;;;;;;8.43;86.59;98957.63;108997;1257;78870;-63
2023/02/24 11:45:32;;;;;;;19.40;12.90;;;;;;;8.45;86.76;98953.90;108987;1257;82253;-60
2023/02/24 11:48:18;;;;;;;22.30;14.10;;;;;;;8.61;86.79;98950.70;109013;1257;99037;-57
2023/02/24 11:50:58;;;;;;;22.20;14.20;;;;;;;8.78;87.08;98943.23;108926;1257;89492;-57
2023/02/24 11:53:39;;;;;;;20.50;13.20;;;;;;;8.93;87.16;98941.92;108908;1257;93672;-57
2023/02/24 11:56:18;;;;;;;23.40;14.50;;;;;;;9.07;86.85;98940.48;108876;1257;81752;-57
2023/02/24 11:59:01;;;;;;;21.50;13.80;;;;;;;9.14;86.44;98935.72;108928;1257;83387;-62
2023/02/24 12:01:42;;;;;;;21.90;14.20;;;;;;;9.15;86.28;98937.88;108975;1257;100151;-59
2023/02/24 12:04:25;;;;;;;23.50;14.50;;;;;;;9.18;86.34;98936.20;108934;1257;87887;-62
2023/02/24 12:07:09;;;;;;;19.10;13.20;;;;;;;9.14;86.29;98931.74;108910;1257;95633;-61
2023/02/24 12:09:51;;;;;;;21.30;13.80;;;;;;;9.18;86.28;98926.41;108917;1257;79976;-57
2023/02/24 12:12:35;;;;;;;20.70;12.90;;;;;;;9.18;85.88;98922.40;109008;1257;82889;-58
2023/02/24 12:15:22;;;;;;;21.60;14.20;;;;;;;9.16;85.92;98926.09;109027;1257;98656;-58
2023/02/24 12:18:06;;;;;;;20.00;13.20;;;;;;;9.16;85.66;98929.29;109008;1257;87895;-59
2023/02/24 12:20:47;;;;;;;21.40;14.10;;;;;;;9.02;85.62;98924.09;108901;1257;94803;-61
2023/02/24 12:23:29;;;;;;;20.60;14.70;;;;;;;8.94;85.34;98918.34;108928;1257;80418;-59
2023/02/24 12:26:19;;;;;;;22.40;14.60;;;;;;;8.78;85.39;98916.88;109068;1256;81496;-59
2023/02/24 12:29:18;;;;;;;19.90;13.50;;;;;;;8.58;85.47;98915.64;109110;1257;98357;-62
2023/02/24 12:32:02;;;;;;;21.10;14.00;;;;;;;8.58;85.53;98908.23;109140;1256;86861;-62
2023/02/24 12:34:51;;;;;;;18.60;13.90;;;;;;;8.86;86.02;98906.28;109128;1257;94233;-61
2023/02/24 12:37:48;;;;;;;21.20;12.90;;;;;;;9.26;85.95;98898.59;109130;1256;81591;-62